createdAt,value
2018-07-10T00:02:17.475Z,57.70
2018-07-10T00:07:01.794Z,58.00
2018-07-10T00:11:48.876Z,58.10
2018-07-10T00:14:17.216Z,58.20
2018-07-10T00:16:45.519Z,58.40
2018-07-10T00:21:41.917Z,59.30
2018-07-10T00:24:10.308Z,59.50
2018-07-10T00:26:38.616Z,59.70
2018-07-10T00:29:06.966Z,59.40
2018-07-10T00:31:35.292Z,60.10
2018-07-10T00:34:03.650Z,60.80
2018-07-10T00:36:32.000Z,60.80
2018-07-10T00:39:02.620Z,61.60
2018-07-10T00:41:32.653Z,61.60
2018-07-10T00:44:01.772Z,60.60
2018-07-10T00:46:31.261Z,61.30
2018-07-10T00:48:59.604Z,60.80
2018-07-10T00:51:29.076Z,61.30
2018-07-10T00:56:25.561Z,61.90
2018-07-10T00:58:55.069Z,62.40
2018-07-10T01:01:23.721Z,62.40
2018-07-10T01:03:52.204Z,62.10
2018-07-10T01:06:20.848Z,61.60
2018-07-10T01:08:49.288Z,62.50
2018-07-10T01:11:18.272Z,61.90
2018-07-10T01:16:19.833Z,62.80
2018-07-10T01:18:48.800Z,62.50
2018-07-10T01:21:19.839Z,62.60
2018-07-10T01:23:57.977Z,62.50
2018-07-10T01:26:27.347Z,62.60
2018-07-10T01:28:59.771Z,62.70
2018-07-10T01:31:28.148Z,62.90
2018-07-10T01:33:56.520Z,63.20
2018-07-10T01:36:24.888Z,63.10
2018-07-10T01:38:53.276Z,63.20
2018-07-10T01:41:21.613Z,63.20
2018-07-10T01:43:50.020Z,63.30
2018-07-10T01:46:18.389Z,63.50
2018-07-10T01:48:46.746Z,63.70
2018-07-10T01:51:15.081Z,64.00
2018-07-10T01:53:43.448Z,64.10
2018-07-10T01:56:11.856Z,64.20
2018-07-10T01:58:41.389Z,64.10
2018-07-10T02:01:09.766Z,64.20
2018-07-10T02:03:38.126Z,64.80
2018-07-10T02:06:06.489Z,64.70
2018-07-10T02:13:30.978Z,65.00
2018-07-10T02:15:59.332Z,65.30
2018-07-10T02:18:27.945Z,65.50
2018-07-10T02:20:59.042Z,65.70
2018-07-10T02:23:38.133Z,65.80
2018-07-10T02:26:07.503Z,66.10
2018-07-10T02:28:35.905Z,66.60
2018-07-10T02:31:04.301Z,66.90
2018-07-10T02:33:32.773Z,67.40
2018-07-10T02:36:01.165Z,68.00
2018-07-10T02:38:29.548Z,68.30
2018-07-10T02:40:58.723Z,68.50
2018-07-10T02:43:27.509Z,68.80
2018-07-10T02:45:57.176Z,69.00
2018-07-10T02:48:29.587Z,69.20
2018-07-10T02:50:58.049Z,69.20
2018-07-10T02:53:29.071Z,69.30
2018-07-10T02:55:57.461Z,69.40
2018-07-10T02:58:27.108Z,69.70
2018-07-10T03:00:55.501Z,70.00
2018-07-10T03:03:24.632Z,70.00
2018-07-10T03:05:53.053Z,70.00
2018-07-10T03:08:21.429Z,70.40
2018-07-10T03:10:49.805Z,70.60
2018-07-10T03:13:18.157Z,70.80
2018-07-10T03:15:46.549Z,70.50
2018-07-10T03:18:15.664Z,70.80
2018-07-10T03:20:44.859Z,70.60
2018-07-10T03:23:13.170Z,70.80
2018-07-10T03:25:41.566Z,71.00
2018-07-10T03:28:09.972Z,71.20
2018-07-10T03:33:06.451Z,72.30
2018-07-10T03:35:34.901Z,72.70
2018-07-10T03:38:03.281Z,72.70
2018-07-10T03:40:31.666Z,72.90
2018-07-10T03:43:00.006Z,73.40
2018-07-10T03:45:28.405Z,73.60
2018-07-10T03:47:58.354Z,74.00
2018-07-10T03:50:27.340Z,73.90
2018-07-10T03:52:55.720Z,74.10
2018-07-10T03:55:24.760Z,74.30
2018-07-10T03:57:57.484Z,74.40
2018-07-10T04:00:26.516Z,74.70
2018-07-10T04:02:54.888Z,74.80
2018-07-10T04:05:24.035Z,75.10
2018-07-10T04:07:53.357Z,75.00
2018-07-10T04:12:51.821Z,75.20
2018-07-10T04:15:20.216Z,75.20
2018-07-10T04:18:03.292Z,75.50
2018-07-10T04:20:41.772Z,75.70
2018-07-10T04:25:38.216Z,75.70
2018-07-10T04:28:14.295Z,76.20
2018-07-10T04:33:16.290Z,76.40
2018-07-10T04:35:44.684Z,76.30
2018-07-10T04:38:13.458Z,76.50
2018-07-10T04:40:42.437Z,76.70
2018-07-10T04:43:17.068Z,76.70
2018-07-10T04:50:52.167Z,77.50
2018-07-10T04:53:26.881Z,77.60
2018-07-10T04:55:56.586Z,77.80
2018-07-10T05:00:58.601Z,78.20
2018-07-10T05:03:28.212Z,78.20
2018-07-10T05:06:01.704Z,78.20
2018-07-10T05:08:30.424Z,78.20
2018-07-10T05:10:58.997Z,78.40
2018-07-10T05:13:27.881Z,78.60
2018-07-10T05:15:58.337Z,78.70
2018-07-10T05:18:26.671Z,78.80
2018-07-10T05:20:55.097Z,79.00
2018-07-10T05:23:23.517Z,79.30
2018-07-10T05:25:54.408Z,79.10
2018-07-10T05:28:23.236Z,79.00
2018-07-10T05:33:22.044Z,79.40
2018-07-10T05:35:51.365Z,79.10
2018-07-10T05:38:24.854Z,79.90
2018-07-10T05:40:53.196Z,79.70
2018-07-10T05:43:21.565Z,79.90
2018-07-10T05:45:49.947Z,80.10
2018-07-10T05:48:18.363Z,80.20
2018-07-10T05:50:46.747Z,79.50
2018-07-10T05:53:15.143Z,79.50
2018-07-10T05:55:50.306Z,79.70
2018-07-10T05:58:18.733Z,79.70
2018-07-10T06:00:47.109Z,80.30
2018-07-10T06:03:15.502Z,80.10
2018-07-10T06:05:43.856Z,81.30
2018-07-10T06:08:13.613Z,80.30
2018-07-10T06:10:42.648Z,80.40
2018-07-10T06:13:11.037Z,80.70
2018-07-10T06:15:39.417Z,81.10
2018-07-10T06:18:07.853Z,81.10
2018-07-10T06:20:36.240Z,81.20
2018-07-10T06:23:05.473Z,81.00
2018-07-10T06:25:34.445Z,81.80
2018-07-10T06:29:18.292Z,81.30
2018-07-10T06:31:50.816Z,81.90
2018-07-10T06:34:20.500Z,82.20
2018-07-10T06:37:05.916Z,82.10
2018-07-10T06:39:34.256Z,82.70
2018-07-10T06:42:12.309Z,83.10
2018-07-10T06:47:42.046Z,83.70
2018-07-10T06:50:10.420Z,84.50
2018-07-10T06:52:42.528Z,85.00
2018-07-10T06:55:14.988Z,84.30
2018-07-10T06:57:52.804Z,84.60
2018-07-10T07:00:21.182Z,85.40
2018-07-10T07:02:49.641Z,85.40
2018-07-10T07:05:17.981Z,85.50
2018-07-10T07:07:46.439Z,85.50
2018-07-10T07:10:15.630Z,85.50
2018-07-10T07:12:44.960Z,85.80
2018-07-10T07:15:17.732Z,86.40
2018-07-10T07:17:50.158Z,86.60
2018-07-10T07:20:19.662Z,86.70
2018-07-10T07:22:48.125Z,87.00
2018-07-10T07:25:16.445Z,87.10
2018-07-10T07:27:44.826Z,88.30
2018-07-10T07:30:13.179Z,87.60
2018-07-10T07:32:41.493Z,87.80
2018-07-10T07:35:09.844Z,88.20
2018-07-10T07:37:39.198Z,88.60
2018-07-10T07:40:07.576Z,88.10
2018-07-10T07:42:36.046Z,88.30
2018-07-10T07:45:04.452Z,88.80
2018-07-10T07:47:32.837Z,89.30
2018-07-10T07:50:01.265Z,89.60
2018-07-10T07:52:30.822Z,88.80
2018-07-10T07:55:00.532Z,88.80
2018-07-10T07:57:28.908Z,88.60
2018-07-10T07:59:57.305Z,88.80
2018-07-10T08:02:25.738Z,88.50
2018-07-10T08:04:54.354Z,88.40
2018-07-10T08:07:23.881Z,88.50
2018-07-10T08:09:53.570Z,87.80
2018-07-10T08:12:22.155Z,87.60
2018-07-10T08:14:50.913Z,87.80
2018-07-10T08:17:19.311Z,87.60
2018-07-10T08:19:48.013Z,88.20
2018-07-10T08:22:16.412Z,88.40
2018-07-10T08:24:44.801Z,88.30
2018-07-10T08:29:41.405Z,87.80
2018-07-10T08:32:09.784Z,86.00
2018-07-10T08:34:38.164Z,86.20
2018-07-10T08:37:06.561Z,85.90
2018-07-10T08:39:34.948Z,86.50
2018-07-10T08:42:05.881Z,87.00
2018-07-10T08:44:34.386Z,85.60
2018-07-10T08:47:03.292Z,85.40
2018-07-10T08:49:33.862Z,83.90
2018-07-10T08:52:02.528Z,83.40
2018-07-10T08:54:30.944Z,83.40
2018-07-10T08:56:59.333Z,83.00
2018-07-10T08:59:28.175Z,82.40
2018-07-10T09:01:56.545Z,79.60
2018-07-10T09:04:24.961Z,80.70
2018-07-10T09:06:53.332Z,79.60
2018-07-10T09:09:21.724Z,81.00
2018-07-10T09:11:50.141Z,81.80
2018-07-10T09:14:18.613Z,80.40
2018-07-10T09:16:47.017Z,77.30
2018-07-10T09:19:17.944Z,77.30
2018-07-10T09:21:50.152Z,77.00
2018-07-10T09:24:18.554Z,74.00
2018-07-10T09:26:46.952Z,72.40
2018-07-10T09:29:15.609Z,69.30
2018-07-10T09:31:44.005Z,68.70
2018-07-10T09:34:12.397Z,68.60
2018-07-10T09:36:40.796Z,72.50
2018-07-10T09:39:09.524Z,69.50
2018-07-10T09:41:37.913Z,70.70
2018-07-10T09:44:06.363Z,67.90
2018-07-10T09:46:35.425Z,64.20
2018-07-10T09:49:04.660Z,64.40
2018-07-10T09:51:33.123Z,66.00
2018-07-10T09:54:01.508Z,71.30
2018-07-10T09:56:30.921Z,72.90
2018-07-10T09:58:59.325Z,75.10
2018-07-10T10:01:34.664Z,74.80
2018-07-10T10:04:03.925Z,76.50
2018-07-10T10:06:33.423Z,77.10
2018-07-10T10:09:02.612Z,77.90
2018-07-10T10:11:31.257Z,78.70
2018-07-10T10:13:59.837Z,78.60
2018-07-10T10:18:57.480Z,78.50
2018-07-10T10:21:27.191Z,79.00
2018-07-10T10:23:56.961Z,79.70
2018-07-10T10:26:26.256Z,78.90
2018-07-10T10:28:54.645Z,78.50
2018-07-10T10:31:23.129Z,78.60
2018-07-10T10:33:51.540Z,78.90
2018-07-10T10:36:19.945Z,78.80
2018-07-10T10:38:49.082Z,78.60
2018-07-10T10:41:18.724Z,78.50
2018-07-10T10:43:47.830Z,79.70
2018-07-10T10:46:19.152Z,79.50
2018-07-10T10:48:48.386Z,79.30
2018-07-10T10:51:17.725Z,79.10
2018-07-10T10:53:46.568Z,79.30
2018-07-10T10:56:15.313Z,79.30
2018-07-10T10:58:43.697Z,79.40
2018-07-10T11:01:12.227Z,79.80
2018-07-10T11:03:40.601Z,81.20
2018-07-10T11:06:09.003Z,82.80
2018-07-10T11:08:37.383Z,86.30
2018-07-10T11:11:05.826Z,88.50
2018-07-10T11:13:34.221Z,90.50
2018-07-10T11:16:02.614Z,91.60
2018-07-10T11:18:36.846Z,92.20
2018-07-10T11:21:27.446Z,93.00
2018-07-10T11:23:57.245Z,93.90
2018-07-10T11:26:32.146Z,93.80
2018-07-10T11:29:02.417Z,94.10
2018-07-10T11:33:59.156Z,94.00
2018-07-10T11:36:28.517Z,93.50
2018-07-10T11:39:00.181Z,92.10
2018-07-10T11:41:29.393Z,92.90
2018-07-10T11:43:58.966Z,93.00
2018-07-10T11:51:23.483Z,93.50
2018-07-10T11:53:51.856Z,93.50
2018-07-10T11:56:20.207Z,93.30
2018-07-10T11:58:48.655Z,93.60
2018-07-10T12:01:17.020Z,93.50
2018-07-10T12:03:45.628Z,92.30
2018-07-10T12:06:14.005Z,92.40
2018-07-10T12:08:47.448Z,91.70
2018-07-10T12:11:17.762Z,90.30
2018-07-10T12:13:46.198Z,90.50
2018-07-10T12:16:14.925Z,91.10
2018-07-10T12:18:43.328Z,90.50
2018-07-10T12:21:13.395Z,90.30
2018-07-10T12:23:41.893Z,89.60
2018-07-10T12:26:10.309Z,85.70
2018-07-10T12:28:38.720Z,87.40
2018-07-10T12:31:07.119Z,85.20
2018-07-10T12:33:35.532Z,82.10
2018-07-10T12:36:03.885Z,81.30
2018-07-10T12:38:32.367Z,81.10
2018-07-10T12:41:00.842Z,79.20
2018-07-10T12:43:29.244Z,78.60
2018-07-10T12:45:57.645Z,80.30
2018-07-10T12:48:26.165Z,78.20
2018-07-10T12:50:54.547Z,77.00
2018-07-10T12:53:22.993Z,77.60
2018-07-10T12:55:51.376Z,73.00
2018-07-10T12:58:19.756Z,73.10
2018-07-10T13:00:48.141Z,73.40
2018-07-10T13:03:18.100Z,72.00
2018-07-10T13:05:49.578Z,71.30
2018-07-10T13:08:18.601Z,71.70
2018-07-10T13:10:47.008Z,69.50
2018-07-10T13:18:12.135Z,68.10
2018-07-10T13:20:40.570Z,69.50
2018-07-10T13:23:09.130Z,68.30
2018-07-10T13:25:37.488Z,68.50
2018-07-10T13:30:34.268Z,70.00
2018-07-10T13:33:02.853Z,68.70
2018-07-10T13:35:31.621Z,67.80
2018-07-10T13:40:29.985Z,68.00
2018-07-10T13:42:59.584Z,68.50
2018-07-10T13:45:29.218Z,67.00
2018-07-10T13:47:57.604Z,67.90
2018-07-10T13:50:27.912Z,66.60
2018-07-10T13:52:57.557Z,66.70
2018-07-10T13:55:26.345Z,65.90
2018-07-10T14:00:24.532Z,60.70
2018-07-10T14:02:54.309Z,60.90
2018-07-10T14:05:23.634Z,60.20
2018-07-10T14:07:52.232Z,58.60
2018-07-10T14:10:20.903Z,58.90
2018-07-10T14:12:49.309Z,58.20
2018-07-10T14:15:17.961Z,57.70
2018-07-10T14:17:46.448Z,57.80
2018-07-10T14:20:14.841Z,57.30
2018-07-10T14:22:43.228Z,59.90
2018-07-10T14:25:11.669Z,59.10
2018-07-10T14:27:40.053Z,56.50
2018-07-10T14:30:08.450Z,56.50
2018-07-10T14:32:36.819Z,57.20
2018-07-10T14:35:05.229Z,57.50
2018-07-10T14:37:33.612Z,58.10
2018-07-10T14:42:30.435Z,58.20
2018-07-10T14:45:02.790Z,57.20
2018-07-10T14:47:31.157Z,56.80
2018-07-10T14:49:59.545Z,57.70
2018-07-10T14:52:27.929Z,56.50
2018-07-10T14:54:56.328Z,55.60
2018-07-10T14:57:24.706Z,56.70
2018-07-10T14:59:53.089Z,58.20
2018-07-10T15:02:21.476Z,57.10
2018-07-10T15:04:49.869Z,57.20
2018-07-10T15:07:18.241Z,57.70
2018-07-10T15:09:46.629Z,58.30
2018-07-10T15:12:14.948Z,58.40
2018-07-10T15:14:43.381Z,57.10
2018-07-10T15:17:17.180Z,56.30
2018-07-10T15:19:45.538Z,55.70
2018-07-10T15:22:13.861Z,55.90
2018-07-10T15:24:43.180Z,56.70
2018-07-10T15:27:11.521Z,55.70
2018-07-10T15:29:39.927Z,56.10
2018-07-10T15:32:08.276Z,55.40
2018-07-10T15:34:36.644Z,55.50
2018-07-10T15:37:05.030Z,55.30
2018-07-10T15:39:33.435Z,54.20
2018-07-10T15:42:01.805Z,55.50
2018-07-10T15:44:30.212Z,55.00
2018-07-10T15:46:58.548Z,55.20
2018-07-10T15:49:26.884Z,54.70
2018-07-10T15:51:55.228Z,55.50
2018-07-10T15:54:23.593Z,55.20
2018-07-10T15:56:54.841Z,54.60
2018-07-10T15:59:23.218Z,54.70
2018-07-10T16:01:51.937Z,55.30
2018-07-10T16:04:20.312Z,54.60
2018-07-10T16:06:49.293Z,54.60
2018-07-10T16:09:19.413Z,54.20
2018-07-10T16:11:53.116Z,53.80
2018-07-10T16:14:21.937Z,54.00
2018-07-10T16:16:50.342Z,53.60
2018-07-10T16:19:33.709Z,54.40
2018-07-10T16:22:25.156Z,53.90
2018-07-10T16:24:56.016Z,53.10
2018-07-10T16:27:33.900Z,52.20
2018-07-10T16:30:04.177Z,52.30
2018-07-10T16:32:33.597Z,51.40
2018-07-10T16:35:01.986Z,51.70
2018-07-10T16:37:30.484Z,51.10
2018-07-10T16:39:59.665Z,51.90
2018-07-10T16:42:34.057Z,52.10
2018-07-10T16:45:04.276Z,52.90
2018-07-10T16:48:40.014Z,51.90
2018-07-10T16:51:15.691Z,51.80
2018-07-10T16:53:44.144Z,51.30
2018-07-10T16:56:12.541Z,52.20
2018-07-10T16:58:42.090Z,52.20
2018-07-10T17:01:10.722Z,51.80
2018-07-10T17:03:39.340Z,51.00
2018-07-10T17:06:07.801Z,51.50
2018-07-10T17:08:36.549Z,51.10
2018-07-10T17:11:04.962Z,50.70
2018-07-10T17:13:33.476Z,51.90
2018-07-10T17:16:01.937Z,52.40
2018-07-10T17:18:30.296Z,52.20
2018-07-10T17:20:58.784Z,52.10
2018-07-10T17:23:27.169Z,51.50
2018-07-10T17:25:55.567Z,51.00
2018-07-10T17:28:23.946Z,50.30
2018-07-10T17:30:52.388Z,49.40
2018-07-10T17:35:49.325Z,48.80
2018-07-10T17:38:17.692Z,49.40
2018-07-10T17:40:46.155Z,49.80
2018-07-10T17:43:15.596Z,50.10
2018-07-10T17:45:44.157Z,50.90
2018-07-10T17:48:12.536Z,49.80
2018-07-10T17:50:41.221Z,49.40
2018-07-10T17:53:09.593Z,48.20
2018-07-10T17:55:38.008Z,48.20
2018-07-10T17:58:06.768Z,48.40
2018-07-10T18:00:36.408Z,48.70
2018-07-10T18:03:04.816Z,48.90
2018-07-10T18:05:34.037Z,49.10
2018-07-10T18:08:02.684Z,49.00
2018-07-10T18:10:31.309Z,48.40
2018-07-10T18:12:59.722Z,48.20
2018-07-10T18:15:28.218Z,48.40
2018-07-10T18:17:56.750Z,47.80
2018-07-10T18:20:25.097Z,47.80
2018-07-10T18:22:53.588Z,48.70
2018-07-10T18:25:21.933Z,47.90
2018-07-10T18:27:50.337Z,48.10
2018-07-10T18:30:18.763Z,48.80
2018-07-10T18:32:47.137Z,48.50
2018-07-10T18:35:15.465Z,48.50
2018-07-10T18:37:43.916Z,48.30
2018-07-10T18:40:12.273Z,49.10
2018-07-10T18:42:40.711Z,50.00
2018-07-10T18:45:09.080Z,50.30
2018-07-10T18:47:37.524Z,50.20
2018-07-10T18:50:06.352Z,50.20
2018-07-10T18:52:34.827Z,51.10
2018-07-10T18:55:03.200Z,51.70
2018-07-10T18:58:14.785Z,51.80
2018-07-10T19:00:51.533Z,51.80
2018-07-10T19:03:19.909Z,52.10
2018-07-10T19:05:57.554Z,52.30
2018-07-10T19:08:25.957Z,52.80
2018-07-10T19:10:54.332Z,53.20
2018-07-10T19:13:23.192Z,53.60
2018-07-10T19:15:52.449Z,53.80
2018-07-10T19:21:55.969Z,54.80
2018-07-10T19:24:25.516Z,55.10
2018-07-10T19:26:55.119Z,55.50
2018-07-10T19:29:29.612Z,55.60
2018-07-10T19:34:26.399Z,57.00
2018-07-10T19:36:54.861Z,56.70
2018-07-10T19:39:23.868Z,57.00
2018-07-10T19:41:52.393Z,57.20
2018-07-10T19:44:21.440Z,57.60
2018-07-10T19:46:49.985Z,57.70
2018-07-10T19:49:18.911Z,57.70
2018-07-10T19:54:17.244Z,57.80
2018-07-10T19:56:45.745Z,58.00
2018-07-10T19:59:14.905Z,58.10
2018-07-10T20:01:51.772Z,58.10
2018-07-10T20:04:30.412Z,58.10
2018-07-10T20:07:11.229Z,58.40
2018-07-10T20:10:18.116Z,58.60
2018-07-10T20:12:58.183Z,58.80
2018-07-10T20:16:00.688Z,59.10
2018-07-10T20:18:37.667Z,59.40
2018-07-10T20:21:18.585Z,60.20
2018-07-10T20:23:56.393Z,59.90
2018-07-10T20:26:37.969Z,60.30
2018-07-10T20:29:20.413Z,60.80
2018-07-10T20:32:05.686Z,61.50
2018-07-10T20:34:54.845Z,61.90
2018-07-10T20:37:27.309Z,61.70
2018-07-10T20:39:56.569Z,61.80
2018-07-10T20:42:28.928Z,61.40
2018-07-10T20:45:01.393Z,61.50
2018-07-10T20:47:39.726Z,61.80
2018-07-10T20:50:08.133Z,62.20
2018-07-10T20:52:45.584Z,62.70
2018-07-10T20:55:14.025Z,63.10
2018-07-10T20:57:53.666Z,63.50
2018-07-10T21:00:22.109Z,63.50
2018-07-10T21:02:59.685Z,62.90
2018-07-10T21:05:38.804Z,63.30
2018-07-10T21:08:19.861Z,63.30
2018-07-10T21:10:51.867Z,63.30
2018-07-10T21:13:55.520Z,63.90
2018-07-10T21:16:31.677Z,64.30
2018-07-10T21:19:21.265Z,64.70
2018-07-10T21:21:55.889Z,64.90
2018-07-10T21:24:28.816Z,65.30
2018-07-10T21:29:46.868Z,66.10
2018-07-10T21:33:24.419Z,66.40
2018-07-10T21:35:58.849Z,66.90
2018-07-10T21:38:36.206Z,67.30
2018-07-10T21:43:20.761Z,67.60
2018-07-10T21:46:59.092Z,67.90
2018-07-10T21:54:27.032Z,68.50
2018-07-10T21:56:55.376Z,69.60
2018-07-10T21:59:24.388Z,68.80
2018-07-10T22:02:00.425Z,69.00
2018-07-10T22:04:30.144Z,69.30
2018-07-10T22:06:59.700Z,69.20
2018-07-10T22:09:31.008Z,69.40
2018-07-10T22:12:01.228Z,69.70
2018-07-10T22:14:29.612Z,69.90
2018-07-10T22:16:58.469Z,70.20
2018-07-10T22:19:29.157Z,70.50
2018-07-10T22:21:57.668Z,71.10
2018-07-10T22:24:27.389Z,71.40
2018-07-10T22:26:57.289Z,71.50
2018-07-10T22:29:31.000Z,71.80
2018-07-10T22:32:00.401Z,72.60
2018-07-10T22:34:30.020Z,71.70
2018-07-10T22:36:58.792Z,71.90
2018-07-10T22:39:27.330Z,72.10
2018-07-10T22:41:58.369Z,73.30
2018-07-10T22:44:27.896Z,72.70
2018-07-10T22:46:56.937Z,72.90
2018-07-10T22:49:25.906Z,73.10
2018-07-10T22:51:56.033Z,73.30
2018-07-10T22:54:24.404Z,73.70
2018-07-10T22:56:52.797Z,74.10
2018-07-10T22:59:21.165Z,74.40
2018-07-10T23:01:49.556Z,74.50
2018-07-10T23:04:18.501Z,74.90
2018-07-10T23:09:15.149Z,74.60
2018-07-10T23:11:43.565Z,75.00
2018-07-10T23:14:11.946Z,75.00
2018-07-10T23:16:41.082Z,75.30
2018-07-10T23:19:09.656Z,75.80
2018-07-10T23:21:40.321Z,75.90
2018-07-10T23:24:09.173Z,76.30
2018-07-10T23:26:38.848Z,77.00
2018-07-10T23:29:07.208Z,77.00
2018-07-10T23:34:12.296Z,77.90
2018-07-10T23:36:40.721Z,78.20
2018-07-10T23:39:10.210Z,78.10
2018-07-10T23:42:13.913Z,78.20
2018-07-10T23:44:44.793Z,78.30
2018-07-10T23:47:23.285Z,78.20
2018-07-10T23:49:58.421Z,78.30
2018-07-10T23:52:41.004Z,78.50
2018-07-10T23:55:10.568Z,78.80
